Flight Track Log - Related Links

Times and Time Zones

All times are in EDT time to prevent confusion due to time zone crossing. See the GJS3707 flight status page for this flight to view local times or setup timezone preferences in your user account.

Time Position Orientation Groundspeed Altitude Reporting Facility
EDT Latitude Longitude Course Direction KTS MPH feet Rate Location/Type
Thu 03:23:22 PM 43.5917 -116.3264 288° West 189 217 6,300  Level Salt Lake Center
Thu 03:24:24 PM 43.6194 -116.3989 298° West 213 245 8,600 1,766 Climbing Salt Lake Center
Thu 03:25:00 PM 43.6622 -115.5294 78° East  Level FlightAware Approximate
Thu 03:26:00 PM 43.6801 -115.3528 83° East  Level FlightAware Approximate
Thu 03:26:00 PM 43.6382 -116.1201 85° East  Level Estimated
Thu 03:27:00 PM 43.7056 -115.1836 81° East  Level FlightAware Approximate
Thu 03:27:30 PM 43.7003 -116.0686 85° East 354 407 13,600  Level Salt Lake Center
Thu 03:28:32 PM 43.7172 -115.9333 80° East 371 427 15,300 1,984 Climbing Salt Lake Center
Thu 03:29:34 PM 43.7350 -115.7711 81° East 382 440 17,700 1,887 Climbing Salt Lake Center
Thu 03:30:36 PM 43.7522 -115.6292 80° East 390 449 19,200 1,500 Climbing Salt Lake Center
Thu 03:31:38 PM 43.7725 -115.4539 81° East 413 475 20,800 1,306 Climbing Salt Lake Center
Thu 03:32:40 PM 43.7892 -115.2981 82° East 426 490 21,900 1,258 Climbing Salt Lake Center
Thu 03:33:42 PM 43.8117 -115.1081 81° East 444 511 23,400 1,392 Climbing Salt Lake Center
Thu 03:34:45 PM 43.8289 -114.9436 82° East 451 519 24,800 1,296 Climbing Salt Lake Center
Thu 03:35:47 PM 43.8494 -114.7494 82° East 458 527 26,100 1,113 Climbing Salt Lake Center
Thu 03:36:49 PM 43.8681 -114.5794 81° East 468 539 27,100 1,016 Climbing Salt Lake Center
Thu 03:37:51 PM 43.8894 -114.3733 82° East 483 556 28,200 1,016 Climbing Salt Lake Center
Thu 03:38:53 PM 43.9069 -114.1944 82° East 488 562 29,200 919 Climbing Salt Lake Center
Thu 03:39:55 PM 43.9253 -114.0158 82° East 490 564 30,100 968 Climbing Salt Lake Center
Thu 03:40:57 PM 43.9450 -113.8172 82° East 490 564 31,200 1,113 Climbing Salt Lake Center
Thu 03:41:59 PM 43.9664 -113.6069 82° East 493 567 32,400 1,016 Climbing Salt Lake Center
Thu 03:43:01 PM 43.9797 -113.4247 84° East 495 570 33,300 968 Climbing Salt Lake Center
Thu 03:44:03 PM 43.9994 -113.2156 82° East 492 566 34,400 823 Climbing Salt Lake Center
Thu 03:45:05 PM 44.0164 -113.0369 82° East 489 563 35,000 290 Climbing Salt Lake Center
Thu 03:46:07 PM 44.0353 -112.8219 83° East 502 578 35,000  Level Salt Lake Center
Thu 03:47:09 PM 44.0522 -112.6328 83° East 515 593 35,000  Level Salt Lake Center
Thu 03:48:11 PM 44.0703 -112.4092 84° East 521 600 35,000  Level Salt Lake Center
Thu 03:49:13 PM 44.0867 -112.2222 83° East 514 592 35,000 581 Level Salt Lake Center
Thu 03:50:15 PM 44.0900 -112.0158 89° East 482 555 36,200 871 Climbing Salt Lake Center
Thu 03:51:17 PM 44.0917 -111.8433 89° East 471 542 36,800 387 Climbing Salt Lake Center
Thu 03:52:19 PM 44.0925 -111.6411 90° East 472 543 37,000 97 Climbing Salt Lake Center
Thu 03:53:21 PM 44.0928 -111.4636 90° East 479 551 37,000  Level Salt Lake Center
Thu 03:54:23 PM 44.0942 -111.2528 89° East 489 563 37,000  Level Salt Lake Center
Thu 03:55:25 PM 44.0939 -111.0700 90° East 495 570 37,000 48 Level Salt Lake Center
Thu 03:56:27 PM 44.0944 -110.8564 90° East 497 572 37,100  Climbing Salt Lake Center
Thu 03:57:29 PM 44.0931 -110.6747 91° East 495 570 37,000 -48 Descending Salt Lake Center
Thu 03:58:31 PM 44.0942 -110.4617 90° East 495 570 37,000  Level Salt Lake Center
Thu 03:59:33 PM 44.0917 -110.2811 91° East 491 565 37,000  Level Salt Lake Center
Thu 04:00:35 PM 44.0900 -110.1017 91° East 487 560 37,000  Level Salt Lake Center
Thu 04:01:37 PM 44.0883 -109.8908 91° East 495 570 37,000  Level Salt Lake Center
Thu 04:02:39 PM 44.0869 -109.7033 91° East 497 572 37,000  Level Salt Lake Center
Thu 04:03:42 PM 44.0836 -109.4872 91° East 502 578 37,000  Level Salt Lake Center
Thu 04:04:44 PM 44.0800 -109.3019 91° East 500 575 37,000  Level Salt Lake Center
Thu 04:05:46 PM 44.0769 -109.0861 91° East 502 578 37,000  Level Salt Lake Center
Thu 04:06:48 PM 44.0739 -108.9014 91° East 499 574 37,000  Level Salt Lake Center
Thu 04:07:50 PM 44.0689 -108.6867 92° East 498 573 37,000  Level Salt Lake Center
Thu 04:08:52 PM 44.0656 -108.5017 91° East 499 574 37,000  Level Salt Lake Center
Thu 04:09:54 PM 44.0614 -108.2892 91° East 498 573 37,000  Level Salt Lake Center
Thu 04:10:56 PM 44.0564 -108.1056 92° East 496 571 37,000  Level Salt Lake Center
Thu 04:11:58 PM 44.0514 -107.8933 92° East 493 567 37,000  Level Salt Lake Center
Thu 04:13:00 PM 44.0453 -107.7108 93° East 494 568 37,000  Level Salt Lake Center
Thu 04:14:02 PM 44.0383 -107.4989 93° East 493 567 37,000  Level Salt Lake Center
Thu 04:15:04 PM 44.0331 -107.3164 92° East 493 567 37,000  Level Salt Lake Center
Thu 04:16:06 PM 44.0269 -107.1192 92° East 490 564 37,000  Level Salt Lake Center
Thu 04:16:45 PM 44.0211 -106.9986 94° East 487 560 37,000  Level Denver Center
Thu 04:17:47 PM 44.0147 -106.7892 92° East 486 559 37,000  Level Denver Center
Thu 04:18:10 PM 44.0128 -106.7297 93° East 487 560 37,000  Level Salt Lake Center
Thu 04:18:49 PM 44.0072 -106.6092 94° East 487 560 37,000  Level Denver Center
Thu 04:19:51 PM 44.0008 -106.4311 93° East 483 556 37,000  Level Denver Center
Thu 04:20:14 PM 44.0003 -106.3422 90° East 485 558 37,000  Level Salt Lake Center
Thu 04:21:16 PM 44.0033 -106.1603 89° East 489 563 37,000  Level Salt Lake Center
Thu 04:21:55 PM 44.0031 -106.0367 90° East 492 566 37,000  Level Denver Center
Thu 04:22:57 PM 44.0047 -105.8231 89° East 494 568 37,000  Level Denver Center
Thu 04:23:59 PM 44.0042 -105.6389 90° East 495 570 37,000  Level Denver Center
Thu 04:25:13 PM 44.0036 -105.4181 90° East 502 578 37,000  Level Denver Center
Thu 04:26:16 PM 44.0039 -105.1947 90° East 509 586 37,000  Level Denver Center
Thu 04:27:18 PM 44.0031 -104.9717 90° East 514 592 37,000  Level Denver Center
Thu 04:28:20 PM 44.0022 -104.7800 90° East 515 593 37,000  Level Denver Center
Thu 04:29:22 PM 44.0011 -104.5586 90° East 515 593 37,000  Level Denver Center
Thu 04:30:24 PM 43.9986 -104.3717 91° East 511 588 37,000  Level Denver Center
Thu 04:31:26 PM 43.9967 -104.1661 91° East 492 566 37,000  Level Denver Center
Thu 04:32:28 PM 43.9933 -103.9828 91° East 492 566 37,000  Level Denver Center
Thu 04:33:30 PM 43.9900 -103.7728 91° East 489 563 37,000  Level Denver Center
Thu 04:34:32 PM 43.9889 -103.5944 90° East 485 558 37,000  Level Denver Center
Thu 04:35:34 PM 43.9853 -103.3831 91° East 488 562 37,000  Level Denver Center
Thu 04:36:36 PM 43.9814 -103.2019 92° East 490 564 37,000  Level Denver Center
Thu 04:37:38 PM 43.9775 -103.0200 92° East 492 566 37,000  Level Denver Center
Thu 04:38:40 PM 43.9711 -102.8133 92° East 491 565 37,000  Level Denver Center
Thu 04:39:42 PM 43.9658 -102.6228 92° East 494 568 37,000  Level Denver Center
Thu 04:40:44 PM 43.9578 -102.4308 93° East 497 572 37,000  Level Denver Center
Thu 04:41:46 PM 43.9517 -102.2389 92° East 499 574 37,000  Level Denver Center
Thu 04:42:48 PM 43.9411 -102.0011 93° East 511 588 37,000  Level Denver Center
Thu 04:43:51 PM 43.9342 -101.8033 93° East 514 592 37,000  Level Denver Center
Thu 04:44:53 PM 43.9322 -101.6106 91° East 507 583 37,000  Level Denver Center
Thu 04:45:55 PM 43.9233 -101.4108 93° East 517 595 37,000  Level Denver Center
Thu 04:46:59 PM 43.9128 -101.1686 93° East 519 597 37,000  Level Minneapolis Center
Thu 04:48:01 PM 43.9047 -100.9669 93° East 522 601 37,000  Level Minneapolis Center
Thu 04:49:03 PM 43.8975 -100.7675 93° East 523 602 37,000  Level Minneapolis Center
Thu 04:50:05 PM 43.8883 -100.5631 93° East 529 609 37,000  Level Minneapolis Center
Thu 04:51:07 PM 43.8772 -100.3558 94° East 538 619 37,000  Level Minneapolis Center
Thu 04:52:09 PM 43.8689 -100.1522 93° East 536 617 37,000  Level Minneapolis Center
Thu 04:53:12 PM 43.8564 -99.9078 94° East 533 613 37,000  Level Minneapolis Center
Thu 04:54:14 PM 43.8442 -99.7019 95° East 537 618 37,000  Level Minneapolis Center
Thu 04:55:16 PM 43.8333 -99.4986 94° East 535 616 37,000  Level Minneapolis Center
Thu 04:56:18 PM 43.8225 -99.2925 94° East 538 619 37,000  Level Minneapolis Center
Thu 04:57:20 PM 43.8108 -99.0897 94° East 534 615 37,000  Level Minneapolis Center
Thu 04:58:22 PM 43.7967 -98.8461 95° East 533 613 37,000  Level Minneapolis Center
Thu 04:59:24 PM 43.7842 -98.6444 95° East 531 611 37,000  Level Minneapolis Center
Thu 05:01:29 PM 43.7564 -98.2331 95° East 526 605 37,000  Level Minneapolis Center
Thu 05:02:31 PM 43.7433 -98.0333 95° East 524 603 37,000  Level Minneapolis Center
Thu 05:03:33 PM 43.7292 -97.8344 96° East 523 602 37,000  Level Minneapolis Center
Thu 05:04:35 PM 43.7150 -97.6344 96° East 525 604 37,000  Level Minneapolis Center
Thu 05:05:38 PM 43.7003 -97.4367 96° East 522 601 37,000  Level Minneapolis Center
Thu 05:06:39 PM 43.6822 -97.1975 96° East 525 604 37,000  Level Minneapolis Center
Thu 05:07:41 PM 43.6672 -96.9975 96° East 527 606 37,000 48 Level Minneapolis Center
Thu 05:08:43 PM 43.6506 -96.8006 97° East 522 601 37,100  Climbing Minneapolis Center
Thu 05:09:45 PM 43.6233 -96.6061 101° East 520 598 37,000 -48 Descending Minneapolis Center
Thu 05:10:47 PM 43.5947 -96.4103 101° East 526 605 37,000  Level Minneapolis Center
Thu 05:11:50 PM 43.5603 -96.1747 101° East 528 608 37,000  Level Minneapolis Center
Thu 05:12:52 PM 43.5308 -95.9794 102° East 525 604 37,000  Level Minneapolis Center
Thu 05:13:54 PM 43.5008 -95.7831 102° East 530 610 37,000  Level Minneapolis Center
Thu 05:14:56 PM 43.4703 -95.5872 102° East 528 608 37,000  Level Minneapolis Center
Thu 05:15:58 PM 43.4392 -95.3908 102° East 530 610 37,000  Level Minneapolis Center
Thu 05:17:00 PM 43.4025 -95.1556 102° East 528 608 37,000 -48 Level Minneapolis Center
Thu 05:18:02 PM 43.3711 -94.9594 102° East 528 608 36,900 -532 Descending Minneapolis Center
Thu 05:19:04 PM 43.3386 -94.7597 103° East 533 613 35,900 -919 Descending Minneapolis Center
Thu 05:20:06 PM 43.3058 -94.5625 103° East 532 612 35,000 -435 Descending Minneapolis Center
Thu 05:21:08 PM 43.2728 -94.3658 103° East 530 610 35,000  Level Minneapolis Center
Thu 05:22:10 PM 43.2392 -94.1656 103° East 527 606 35,000  Level Minneapolis Center
Thu 05:23:13 PM 43.1978 -93.9294 103° East 534 615 35,000  Level Minneapolis Center
Thu 05:24:15 PM 43.1647 -93.7272 103° East 543 625 35,000  Level Minneapolis Center
Thu 05:25:17 PM 43.1308 -93.5247 103° East 548 631 35,000  Level Minneapolis Center
Thu 05:26:19 PM 43.0928 -93.3231 104° East 551 634 35,000  Level Minneapolis Center
Thu 05:27:21 PM 43.0808 -93.1158 94° East 550 633 35,000  Level Minneapolis Center
Thu 05:28:23 PM 43.0644 -92.8700 95° East 547 629 35,000  Level Minneapolis Center
Thu 05:29:25 PM 43.0500 -92.6692 96° East 540 621 35,000  Level Minneapolis Center
Thu 05:30:27 PM 43.0358 -92.4719 96° East 531 611 35,000 -364 Level Minneapolis Center
Thu 05:31:04 PM 43.0261 -92.3544 96° East 526 605 34,400 -970 Descending Chicago Center
Thu 05:32:06 PM 43.0111 -92.1547 96° East 530 610 33,400 -966 Descending Chicago Center
Thu 05:32:31 PM 43.0067 -92.0744 94° East 530 610 33,000 -955 Descending Minneapolis Center
Thu 05:33:34 PM 42.9922 -91.8717 95° East 535 616 32,000 -1,091 Descending Minneapolis Center
Thu 05:34:10 PM 42.9800 -91.7100 96° East 535 616 31,200 -1,091 Descending Chicago Center
Thu 05:35:13 PM 42.9619 -91.5106 97° East 520 598 30,200 -955 Descending Chicago Center
Thu 05:35:38 PM 42.9306 -91.4406 121° Southeast 527 606 29,800 -968 Descending Minneapolis Center
Thu 05:36:15 PM 42.8544 -91.3778 149° Southeast 534 615 29,200 -485 Descending Chicago Center
Thu 05:37:17 PM 42.7283 -91.2881 152° Southeast 509 586 29,000 -97 Descending Chicago Center
Thu 05:38:19 PM 42.6181 -91.1717 142° Southeast 517 595 29,000  Level Chicago Center
Thu 05:39:21 PM 42.5881 -90.9900 103° East 516 594 29,000 -145 Level Chicago Center
Thu 05:40:23 PM 42.5847 -90.7992 91° East 514 592 28,700 -726 Descending Chicago Center
Thu 05:41:25 PM 42.5831 -90.5767 91° East 498 573 27,500 -1,306 Descending Chicago Center
Thu 05:42:27 PM 42.5822 -90.3947 90° East 489 563 26,000 -1,500 Descending Chicago Center
Thu 05:43:29 PM 42.5794 -90.2181 91° East 475 547 24,400 -1,728 Descending Chicago Center
Thu 05:44:32 PM 42.5769 -90.0447 91° East 466 536 22,400 -1,872 Descending Chicago Center
Thu 05:45:34 PM 42.5728 -89.8686 92° East 446 513 20,500 -1,935 Descending Chicago Center
Thu 05:46:36 PM 42.5689 -89.6811 92° East 430 495 18,400 -1,839 Descending Chicago Center
Thu 05:47:38 PM 42.5664 -89.5261 91° East 414 476 16,700 -1,548 Descending Chicago Center
Thu 05:48:40 PM 42.5631 -89.3769 92° East 400 460 15,200 -1,210 Descending Chicago Center
Thu 05:49:42 PM 42.5608 -89.2494 91° East 342 394 14,200 -968 Descending Chicago Center
Thu 05:50:44 PM 42.5581 -89.1283 92° East 325 374 13,200 -1,065 Descending Chicago Center
Thu 05:51:46 PM 42.5242 -88.9942 109° East 326 375 12,000 -581 Descending Chicago Center
Thu 05:52:48 PM 42.5097 -88.8803 100° East 316 364 12,000  Level Chicago Center
Thu 05:53:50 PM 42.5325 -88.7681 75° East 314 361 12,000 -432 Level Chicago Center
Thu 05:54:53 PM 42.4931 -88.6603 116° Southeast 322 371 11,100 -1,008 Descending Chicago Center
Thu 05:55:55 PM 42.4303 -88.5761 135° Southeast 318 366 9,900 -1,016 Descending Chicago Center
Thu 05:56:57 PM 42.3669 -88.4700 129° Southeast 315 362 9,000 -677 Descending Chicago Center
Thu 05:57:59 PM 42.3300 -88.3775 118° Southeast 311 358 8,500 -484 Descending Chicago Center
Thu 05:59:01 PM 42.2547 -88.3364 158° South 309 356 8,000 -242 Descending Chicago Center
Thu 06:00:03 PM 42.1569 -88.3239 175° South 297 342 8,000  Level Chicago Center
Thu 06:01:05 PM 42.0886 -88.3428 192° South 261 300 8,000 -48 Level Chicago Center
Thu 06:02:07 PM 42.0244 -88.3583 190° South 235 270 7,900 -677 Descending Chicago Center
Thu 06:03:09 PM 41.9706 -88.3303 159° South 226 260 6,600 -1,200 Descending Chicago Center
Thu 06:04:12 PM 41.9642 -88.2572 97° East 200 230 5,400 -1,152 Descending Chicago Center
Thu 06:05:14 PM 41.9689 -88.1728 86° East 193 222 4,200 -1,075 Descending Chicago Center
Thu 06:05:58 PM 41.9667 -88.1167 93° East 176 203 3,500 -865 Descending Chicago TRACON
Thu 06:06:58 PM 41.9667 -88.0667 90° East 160 184 2,700 -800 Descending Chicago TRACON

Login

Don't have an account? Register now (free) for customized features, flight alerts, and more!